sensor_id;sensor_type;location;lat;lon;timestamp;pressure;altitude;pressure_sealevel;temperature;humidity
10700;BME280;5401;41.986;21.452;2023-05-23T00:00:38;98163.94;;;17.22;70.48
10700;BME280;5401;41.986;21.452;2023-05-23T00:03:06;98158.78;;;17.20;70.39
10700;BME280;5401;41.986;21.452;2023-05-23T00:05:33;98146.22;;;17.10;70.35
10700;BME280;5401;41.986;21.452;2023-05-23T00:08:01;98152.31;;;17.21;70.75
10700;BME280;5401;41.986;21.452;2023-05-23T00:10:29;98144.63;;;17.13;70.19
10700;BME280;5401;41.986;21.452;2023-05-23T00:12:57;98145.78;;;17.17;69.82
10700;BME280;5401;41.986;21.452;2023-05-23T00:15:26;98147.94;;;17.15;69.91
10700;BME280;5401;41.986;21.452;2023-05-23T00:17:53;98148.97;;;17.14;70.46
10700;BME280;5401;41.986;21.452;2023-05-23T00:20:21;98143.25;;;17.11;70.71
10700;BME280;5401;41.986;21.452;2023-05-23T00:22:50;98147.28;;;17.09;70.51
10700;BME280;5401;41.986;21.452;2023-05-23T00:25:17;98147.28;;;17.09;70.44
10700;BME280;5401;41.986;21.452;2023-05-23T00:27:47;98153.22;;;17.06;70.73
10700;BME280;5401;41.986;21.452;2023-05-23T00:30:14;98146.44;;;17.03;70.02
10700;BME280;5401;41.986;21.452;2023-05-23T00:32:43;98146.13;;;17.00;71.14
10700;BME280;5401;41.986;21.452;2023-05-23T00:35:11;98142.00;;;16.92;70.62
10700;BME280;5401;41.986;21.452;2023-05-23T00:37:39;98148.81;;;16.95;71.23
10700;BME280;5401;41.986;21.452;2023-05-23T00:40:07;98147.16;;;16.94;70.98
10700;BME280;5401;41.986;21.452;2023-05-23T00:42:35;98157.41;;;16.92;71.34
10700;BME280;5401;41.986;21.452;2023-05-23T00:45:03;98160.91;;;16.87;71.08
10700;BME280;5401;41.986;21.452;2023-05-23T00:47:32;98139.13;;;16.73;71.52
10700;BME280;5401;41.986;21.452;2023-05-23T00:50:01;98148.66;;;16.80;71.25
10700;BME280;5401;41.986;21.452;2023-05-23T00:52:29;98159.75;;;16.78;71.09
10700;BME280;5401;41.986;21.452;2023-05-23T00:54:57;98155.63;;;16.76;70.93
10700;BME280;5401;41.986;21.452;2023-05-23T00:57:24;98153.78;;;16.77;71.53
10700;BME280;5401;41.986;21.452;2023-05-23T00:59:52;98146.69;;;16.71;71.47
10700;BME280;5401;41.986;21.452;2023-05-23T01:02:20;98155.06;;;16.74;71.59
10700;BME280;5401;41.986;21.452;2023-05-23T01:04:48;98158.06;;;16.73;71.20
10700;BME280;5401;41.986;21.452;2023-05-23T01:07:20;98148.25;;;16.67;71.84
10700;BME280;5401;41.986;21.452;2023-05-23T01:09:48;98153.66;;;16.67;72.01
10700;BME280;5401;41.986;21.452;2023-05-23T01:12:21;98140.38;;;16.60;71.21
10700;BME280;5401;41.986;21.452;2023-05-23T01:15:07;98153.09;;;16.65;71.62
10700;BME280;5401;41.986;21.452;2023-05-23T01:17:43;98150.66;;;16.63;71.99
10700;BME280;5401;41.986;21.452;2023-05-23T01:20:15;98156.88;;;16.64;71.78
10700;BME280;5401;41.986;21.452;2023-05-23T01:23:17;98154.69;;;16.61;71.92
10700;BME280;5401;41.986;21.452;2023-05-23T01:25:53;98150.84;;;16.57;72.18
10700;BME280;5401;41.986;21.452;2023-05-23T01:28:31;98148.38;;;16.50;72.46
10700;BME280;5401;41.986;21.452;2023-05-23T01:31:02;98153.66;;;16.41;72.57
10700;BME280;5401;41.986;21.452;2023-05-23T01:33:31;98152.28;;;16.38;72.27
10700;BME280;5401;41.986;21.452;2023-05-23T01:36:00;98157.94;;;16.37;72.43
10700;BME280;5401;41.986;21.452;2023-05-23T01:38:28;98151.97;;;16.35;72.53
10700;BME280;5401;41.986;21.452;2023-05-23T01:40:56;98144.31;;;16.27;73.16
10700;BME280;5401;41.986;21.452;2023-05-23T01:43:24;98151.66;;;16.31;73.44
10700;BME280;5401;41.986;21.452;2023-05-23T01:45:55;98146.75;;;16.28;72.90
10700;BME280;5401;41.986;21.452;2023-05-23T01:48:24;98141.66;;;16.32;73.15
10700;BME280;5401;41.986;21.452;2023-05-23T01:50:53;98141.94;;;16.30;73.50
10700;BME280;5401;41.986;21.452;2023-05-23T01:53:22;98137.97;;;16.16;73.24
10700;BME280;5401;41.986;21.452;2023-05-23T01:55:50;98146.16;;;16.05;73.73
10700;BME280;5401;41.986;21.452;2023-05-23T01:58:19;98148.81;;;16.00;74.16
10700;BME280;5401;41.986;21.452;2023-05-23T02:00:46;98157.69;;;15.96;73.99
10700;BME280;5401;41.986;21.452;2023-05-23T02:03:15;98153.75;;;15.87;74.45
10700;BME280;5401;41.986;21.452;2023-05-23T02:05:43;98161.47;;;15.78;74.51
10700;BME280;5401;41.986;21.452;2023-05-23T02:08:10;98163.78;;;15.70;74.85
10700;BME280;5401;41.986;21.452;2023-05-23T02:10:37;98158.88;;;15.67;74.94
10700;BME280;5401;41.986;21.452;2023-05-23T02:13:05;98160.94;;;15.60;74.91
10700;BME280;5401;41.986;21.452;2023-05-23T02:15:32;98155.41;;;15.50;75.67
10700;BME280;5401;41.986;21.452;2023-05-23T02:18:00;98155.50;;;15.39;75.54
10700;BME280;5401;41.986;21.452;2023-05-23T02:20:29;98147.19;;;15.24;76.09
10700;BME280;5401;41.986;21.452;2023-05-23T02:22:57;98133.22;;;15.11;76.69
10700;BME280;5401;41.986;21.452;2023-05-23T02:25:25;98137.31;;;15.13;76.64
10700;BME280;5401;41.986;21.452;2023-05-23T02:27:52;98146.72;;;15.27;77.40
10700;BME280;5401;41.986;21.452;2023-05-23T02:30:19;98147.56;;;15.33;77.28
10700;BME280;5401;41.986;21.452;2023-05-23T02:32:47;98161.41;;;15.36;77.18
10700;BME280;5401;41.986;21.452;2023-05-23T02:35:15;98159.03;;;15.39;77.39
10700;BME280;5401;41.986;21.452;2023-05-23T02:37:44;98153.38;;;15.41;77.22
10700;BME280;5401;41.986;21.452;2023-05-23T02:40:11;98162.59;;;15.45;77.73
10700;BME280;5401;41.986;21.452;2023-05-23T02:42:39;98156.97;;;15.46;77.00
10700;BME280;5401;41.986;21.452;2023-05-23T02:45:07;98158.63;;;15.47;77.33
10700;BME280;5401;41.986;21.452;2023-05-23T02:47:35;98162.94;;;15.48;77.27
10700;BME280;5401;41.986;21.452;2023-05-23T02:50:03;98170.22;;;15.48;77.34
10700;BME280;5401;41.986;21.452;2023-05-23T02:52:31;98170.22;;;15.48;77.37
10700;BME280;5401;41.986;21.452;2023-05-23T02:55:00;98163.16;;;15.47;77.43
10700;BME280;5401;41.986;21.452;2023-05-23T02:57:28;98162.13;;;15.48;77.56
10700;BME280;5401;41.986;21.452;2023-05-23T02:59:55;98169.66;;;15.46;77.51
10700;BME280;5401;41.986;21.452;2023-05-23T03:02:24;98162.47;;;15.35;77.70
10700;BME280;5401;41.986;21.452;2023-05-23T03:04:51;98179.47;;;15.35;77.94
10700;BME280;5401;41.986;21.452;2023-05-23T03:07:21;98175.13;;;15.34;78.02
10700;BME280;5401;41.986;21.452;2023-05-23T03:09:48;98179.47;;;15.35;78.13
10700;BME280;5401;41.986;21.452;2023-05-23T03:12:17;98177.81;;;15.34;78.29
10700;BME280;5401;41.986;21.452;2023-05-23T03:14:50;98181.03;;;15.32;78.32
10700;BME280;5401;41.986;21.452;2023-05-23T03:17:18;98187.56;;;15.35;78.43
10700;BME280;5401;41.986;21.452;2023-05-23T03:19:45;98181.00;;;15.48;78.53
10700;BME280;5401;41.986;21.452;2023-05-23T03:22:13;98183.16;;;15.67;78.16
10700;BME280;5401;41.986;21.452;2023-05-23T03:24:40;98160.66;;;15.78;77.78
10700;BME280;5401;41.986;21.452;2023-05-23T03:27:08;98173.50;;;16.08;77.18
10700;BME280;5401;41.986;21.452;2023-05-23T03:29:38;98176.28;;;16.35;76.50
10700;BME280;5401;41.986;21.452;2023-05-23T03:32:06;98177.53;;;16.75;76.57
10700;BME280;5401;41.986;21.452;2023-05-23T03:34:33;98182.63;;;17.23;74.74
10700;BME280;5401;41.986;21.452;2023-05-23T03:37:01;98185.44;;;17.74;74.33
10700;BME280;5401;41.986;21.452;2023-05-23T03:39:29;98186.56;;;18.24;72.42
10700;BME280;5401;41.986;21.452;2023-05-23T03:41:56;98185.06;;;18.62;70.89
10700;BME280;5401;41.986;21.452;2023-05-23T03:44:24;98188.44;;;19.14;69.69
10700;BME280;5401;41.986;21.452;2023-05-23T03:46:53;98185.44;;;19.69;68.49
10700;BME280;5401;41.986;21.452;2023-05-23T03:49:20;98186.94;;;20.30;66.92
10700;BME280;5401;41.986;21.452;2023-05-23T03:51:48;98187.00;;;20.82;65.14
10700;BME280;5401;41.986;21.452;2023-05-23T03:54:16;98186.97;;;21.25;64.20
10700;BME280;5401;41.986;21.452;2023-05-23T03:56:44;98194.69;;;21.51;63.53
10700;BME280;5401;41.986;21.452;2023-05-23T03:59:11;98195.78;;;21.83;62.64
10700;BME280;5401;41.986;21.452;2023-05-23T04:01:38;98205.66;;;22.31;61.17
10700;BME280;5401;41.986;21.452;2023-05-23T04:04:07;98208.09;;;22.74;60.35
10700;BME280;5401;41.986;21.452;2023-05-23T04:06:36;98200.06;;;23.05;59.28
10700;BME280;5401;41.986;21.452;2023-05-23T04:09:04;98198.72;;;23.39;58.86
10700;BME280;5401;41.986;21.452;2023-05-23T04:11:32;98189.09;;;24.05;57.95
10700;BME280;5401;41.986;21.452;2023-05-23T04:13:59;98186.81;;;24.78;56.64
10700;BME280;5401;41.986;21.452;2023-05-23T04:16:27;98189.41;;;25.45;55.21
10700;BME280;5401;41.986;21.452;2023-05-23T04:18:57;98192.91;;;25.81;54.23
10700;BME280;5401;41.986;21.452;2023-05-23T04:21:26;98194.84;;;26.32;53.03
10700;BME280;5401;41.986;21.452;2023-05-23T04:23:54;98196.53;;;26.88;52.15
10700;BME280;5401;41.986;21.452;2023-05-23T04:26:22;98194.34;;;27.49;50.87
10700;BME280;5401;41.986;21.452;2023-05-23T04:28:50;98199.03;;;27.82;50.06
10700;BME280;5401;41.986;21.452;2023-05-23T04:31:19;98206.94;;;28.08;49.36
10700;BME280;5401;41.986;21.452;2023-05-23T04:33:47;98211.25;;;28.35;48.52
10700;BME280;5401;41.986;21.452;2023-05-23T04:36:15;98208.88;;;28.16;48.48
10700;BME280;5401;41.986;21.452;2023-05-23T04:38:44;98201.09;;;28.18;48.40
10700;BME280;5401;41.986;21.452;2023-05-23T04:41:12;98199.00;;;28.07;48.50
10700;BME280;5401;41.986;21.452;2023-05-23T04:43:41;98202.75;;;27.86;48.87
10700;BME280;5401;41.986;21.452;2023-05-23T04:46:09;98199.84;;;27.57;49.12
10700;BME280;5401;41.986;21.452;2023-05-23T04:48:38;98208.38;;;27.39;49.62
10700;BME280;5401;41.986;21.452;2023-05-23T04:51:07;98190.78;;;27.40;49.39
10700;BME280;5401;41.986;21.452;2023-05-23T04:53:36;98195.34;;;27.69;49.67
10700;BME280;5401;41.986;21.452;2023-05-23T04:56:07;98191.13;;;27.72;49.65
10700;BME280;5401;41.986;21.452;2023-05-23T04:58:34;98192.56;;;27.78;49.12
10700;BME280;5401;41.986;21.452;2023-05-23T05:01:02;98206.16;;;28.08;49.26
10700;BME280;5401;41.986;21.452;2023-05-23T05:03:31;98199.59;;;28.29;48.63
10700;BME280;5401;41.986;21.452;2023-05-23T05:05:58;98198.53;;;28.59;48.32
10700;BME280;5401;41.986;21.452;2023-05-23T05:08:26;98190.97;;;28.76;47.73
10700;BME280;5401;41.986;21.452;2023-05-23T05:10:54;98192.84;;;28.55;47.78
10700;BME280;5401;41.986;21.452;2023-05-23T05:13:23;98191.44;;;28.78;47.48
10700;BME280;5401;41.986;21.452;2023-05-23T05:15:50;98193.59;;;29.01;47.17
10700;BME280;5401;41.986;21.452;2023-05-23T05:18:18;98188.22;;;29.33;46.81
10700;BME280;5401;41.986;21.452;2023-05-23T05:20:46;98185.94;;;29.76;46.41
10700;BME280;5401;41.986;21.452;2023-05-23T05:23:13;98185.00;;;30.16;45.46
10700;BME280;5401;41.986;21.452;2023-05-23T05:25:41;98184.31;;;30.51;45.00
10700;BME280;5401;41.986;21.452;2023-05-23T05:28:08;98180.91;;;30.77;44.05
10700;BME280;5401;41.986;21.452;2023-05-23T05:30:37;98183.31;;;30.91;43.92
10700;BME280;5401;41.986;21.452;2023-05-23T05:33:05;98191.94;;;31.13;43.13
10700;BME280;5401;41.986;21.452;2023-05-23T05:35:33;98194.47;;;31.18;43.38
10700;BME280;5401;41.986;21.452;2023-05-23T05:38:00;98188.69;;;30.75;43.13
10700;BME280;5401;41.986;21.452;2023-05-23T05:40:30;98195.81;;;30.41;43.69
10700;BME280;5401;41.986;21.452;2023-05-23T05:42:57;98188.81;;;30.23;43.42
10700;BME280;5401;41.986;21.452;2023-05-23T05:45:25;98192.22;;;30.28;43.96
10700;BME280;5401;41.986;21.452;2023-05-23T05:47:54;98191.09;;;30.53;44.00
10700;BME280;5401;41.986;21.452;2023-05-23T05:50:22;98185.13;;;30.75;43.07
10700;BME280;5401;41.986;21.452;2023-05-23T05:52:49;98198.28;;;31.13;42.42
10700;BME280;5401;41.986;21.452;2023-05-23T05:55:17;98190.84;;;31.41;42.20
10700;BME280;5401;41.986;21.452;2023-05-23T05:57:44;98193.97;;;31.27;41.99
10700;BME280;5401;41.986;21.452;2023-05-23T06:00:13;98201.13;;;31.40;41.57
10700;BME280;5401;41.986;21.452;2023-05-23T06:02:41;98192.94;;;31.44;41.71
10700;BME280;5401;41.986;21.452;2023-05-23T06:05:10;98186.34;;;31.48;40.93
10700;BME280;5401;41.986;21.452;2023-05-23T06:07:39;98192.59;;;31.45;41.50
10700;BME280;5401;41.986;21.452;2023-05-23T06:10:07;98177.22;;;31.60;41.06
10700;BME280;5401;41.986;21.452;2023-05-23T06:12:37;98181.22;;;31.35;40.51
10700;BME280;5401;41.986;21.452;2023-05-23T06:15:06;98179.25;;;31.00;41.04
10700;BME280;5401;41.986;21.452;2023-05-23T06:17:34;98188.94;;;31.18;40.68
10700;BME280;5401;41.986;21.452;2023-05-23T06:20:04;98187.31;;;30.69;40.83
10700;BME280;5401;41.986;21.452;2023-05-23T06:22:34;98191.97;;;30.01;41.64
10700;BME280;5401;41.986;21.452;2023-05-23T06:25:02;98193.50;;;29.58;41.75
10700;BME280;5401;41.986;21.452;2023-05-23T06:27:30;98191.78;;;29.34;41.82
10700;BME280;5401;41.986;21.452;2023-05-23T06:29:59;98180.66;;;29.62;41.47
10700;BME280;5401;41.986;21.452;2023-05-23T06:32:26;98184.44;;;30.10;40.86
10700;BME280;5401;41.986;21.452;2023-05-23T06:34:53;98180.25;;;30.36;40.44
10700;BME280;5401;41.986;21.452;2023-05-23T06:37:21;98188.31;;;30.41;40.16
10700;BME280;5401;41.986;21.452;2023-05-23T06:39:50;98193.38;;;30.39;40.35
10700;BME280;5401;41.986;21.452;2023-05-23T06:42:17;98186.00;;;30.31;40.57
10700;BME280;5401;41.986;21.452;2023-05-23T06:44:45;98188.22;;;30.73;40.12
10700;BME280;5401;41.986;21.452;2023-05-23T06:47:12;98188.47;;;31.16;39.26
10700;BME280;5401;41.986;21.452;2023-05-23T06:49:40;98187.44;;;31.59;38.77
10700;BME280;5401;41.986;21.452;2023-05-23T06:52:08;98187.19;;;31.76;39.08
10700;BME280;5401;41.986;21.452;2023-05-23T06:54:35;98189.56;;;31.89;38.25
10700;BME280;5401;41.986;21.452;2023-05-23T06:57:05;98187.28;;;32.06;38.47
10700;BME280;5401;41.986;21.452;2023-05-23T06:59:32;98186.94;;;32.08;37.77
10700;BME280;5401;41.986;21.452;2023-05-23T07:02:00;98179.75;;;31.92;38.35
10700;BME280;5401;41.986;21.452;2023-05-23T07:04:27;98177.91;;;32.11;38.03
10700;BME280;5401;41.986;21.452;2023-05-23T07:06:55;98174.44;;;32.29;37.89
10700;BME280;5401;41.986;21.452;2023-05-23T07:09:22;98169.59;;;32.53;37.02
10700;BME280;5401;41.986;21.452;2023-05-23T07:11:50;98166.47;;;32.55;37.34
10700;BME280;5401;41.986;21.452;2023-05-23T07:14:19;98176.16;;;32.18;37.61
10700;BME280;5401;41.986;21.452;2023-05-23T07:16:47;98164.09;;;31.84;38.18
10700;BME280;5401;41.986;21.452;2023-05-23T07:19:14;98166.03;;;31.83;37.62
10700;BME280;5401;41.986;21.452;2023-05-23T07:21:42;98168.00;;;31.56;38.39
10700;BME280;5401;41.986;21.452;2023-05-23T07:24:10;98161.34;;;31.84;37.70
10700;BME280;5401;41.986;21.452;2023-05-23T07:26:38;98160.00;;;31.93;38.17
10700;BME280;5401;41.986;21.452;2023-05-23T07:29:05;98164.22;;;31.36;37.77
10700;BME280;5401;41.986;21.452;2023-05-23T07:31:34;98167.63;;;30.71;38.34
10700;BME280;5401;41.986;21.452;2023-05-23T07:34:02;98167.25;;;30.49;38.77
10700;BME280;5401;41.986;21.452;2023-05-23T07:36:29;98156.91;;;30.69;39.26
10700;BME280;5401;41.986;21.452;2023-05-23T07:38:59;98164.72;;;30.67;38.99
10700;BME280;5401;41.986;21.452;2023-05-23T07:41:26;98166.09;;;30.61;39.07
10700;BME280;5401;41.986;21.452;2023-05-23T07:43:54;98165.44;;;30.64;38.91
10700;BME280;5401;41.986;21.452;2023-05-23T07:46:21;98155.22;;;30.77;38.85
10700;BME280;5401;41.986;21.452;2023-05-23T07:48:50;98156.22;;;30.84;38.32
10700;BME280;5401;41.986;21.452;2023-05-23T07:51:18;98159.56;;;31.01;38.60
10700;BME280;5401;41.986;21.452;2023-05-23T07:53:46;98154.47;;;31.03;38.02
10700;BME280;5401;41.986;21.452;2023-05-23T07:56:13;98154.97;;;30.82;38.80
10700;BME280;5401;41.986;21.452;2023-05-23T07:58:42;98144.13;;;30.53;38.08
10700;BME280;5401;41.986;21.452;2023-05-23T08:01:09;98158.84;;;30.57;38.14
10700;BME280;5401;41.986;21.452;2023-05-23T08:03:37;98157.59;;;30.66;38.19
10700;BME280;5401;41.986;21.452;2023-05-23T08:06:06;98146.31;;;30.71;38.35
10700;BME280;5401;41.986;21.452;2023-05-23T08:08:34;98142.03;;;30.74;38.49
10700;BME280;5401;41.986;21.452;2023-05-23T08:11:03;98157.38;;;30.83;38.05
10700;BME280;5401;41.986;21.452;2023-05-23T08:13:30;98138.94;;;30.75;37.97
10700;BME280;5401;41.986;21.452;2023-05-23T08:15:58;98140.66;;;30.32;38.07
10700;BME280;5401;41.986;21.452;2023-05-23T08:18:25;98132.59;;;29.95;38.62
10700;BME280;5401;41.986;21.452;2023-05-23T08:20:53;98132.53;;;29.72;38.59
10700;BME280;5401;41.986;21.452;2023-05-23T08:23:23;98134.19;;;29.84;38.79
10700;BME280;5401;41.986;21.452;2023-05-23T08:25:51;98133.78;;;30.06;38.12
10700;BME280;5401;41.986;21.452;2023-05-23T08:28:19;98135.94;;;30.45;37.58
10700;BME280;5401;41.986;21.452;2023-05-23T08:30:47;98130.16;;;30.73;37.34
10700;BME280;5401;41.986;21.452;2023-05-23T08:33:14;98124.06;;;30.91;37.44
10700;BME280;5401;41.986;21.452;2023-05-23T08:35:42;98128.09;;;30.82;36.90
10700;BME280;5401;41.986;21.452;2023-05-23T08:38:09;98127.75;;;30.60;37.47
10700;BME280;5401;41.986;21.452;2023-05-23T08:40:39;98126.28;;;30.51;37.63
10700;BME280;5401;41.986;21.452;2023-05-23T08:43:09;98118.31;;;30.37;37.43
10700;BME280;5401;41.986;21.452;2023-05-23T08:45:37;98121.75;;;30.58;37.11
10700;BME280;5401;41.986;21.452;2023-05-23T08:48:07;98114.41;;;30.86;37.40
10700;BME280;5401;41.986;21.452;2023-05-23T08:50:36;98108.69;;;31.18;36.71
10700;BME280;5401;41.986;21.452;2023-05-23T08:53:08;98111.59;;;31.48;36.07
10700;BME280;5401;41.986;21.452;2023-05-23T08:55:38;98114.59;;;31.82;35.82
10700;BME280;5401;41.986;21.452;2023-05-23T08:58:06;98100.69;;;32.09;35.62
10700;BME280;5401;41.986;21.452;2023-05-23T09:00:34;98103.72;;;32.04;35.85
10700;BME280;5401;41.986;21.452;2023-05-23T09:03:01;98094.97;;;32.02;35.72
10700;BME280;5401;41.986;21.452;2023-05-23T09:05:29;98096.47;;;32.15;35.19
10700;BME280;5401;41.986;21.452;2023-05-23T09:07:56;98094.97;;;32.02;35.66
10700;BME280;5401;41.986;21.452;2023-05-23T09:10:25;98096.03;;;32.13;35.55
10700;BME280;5401;41.986;21.452;2023-05-23T09:12:56;98090.06;;;32.27;34.72
10700;BME280;5401;41.986;21.452;2023-05-23T09:15:24;98094.38;;;32.39;34.88
10700;BME280;5401;41.986;21.452;2023-05-23T09:17:52;98088.91;;;32.43;34.61
10700;BME280;5401;41.986;21.452;2023-05-23T09:20:20;98084.63;;;32.45;34.41
10700;BME280;5401;41.986;21.452;2023-05-23T09:22:48;98079.16;;;32.34;34.03
10700;BME280;5401;41.986;21.452;2023-05-23T09:25:15;98089.97;;;32.23;34.49
10700;BME280;5401;41.986;21.452;2023-05-23T09:27:43;98057.78;;;31.61;34.90
10700;BME280;5401;41.986;21.452;2023-05-23T09:30:13;98073.06;;;31.55;35.12
10700;BME280;5401;41.986;21.452;2023-05-23T09:32:40;98084.25;;;31.47;34.59
10700;BME280;5401;41.986;21.452;2023-05-23T09:35:09;98078.56;;;31.28;34.48
10700;BME280;5401;41.986;21.452;2023-05-23T09:37:41;98081.44;;;30.92;34.81
10700;BME280;5401;41.986;21.452;2023-05-23T09:40:12;98073.50;;;30.55;34.65
10700;BME280;5401;41.986;21.452;2023-05-23T09:42:41;98071.75;;;29.92;35.46
10700;BME280;5401;41.986;21.452;2023-05-23T09:45:11;98070.34;;;29.86;35.63
10700;BME280;5401;41.986;21.452;2023-05-23T09:47:48;98065.28;;;29.88;35.71
10700;BME280;5401;41.986;21.452;2023-05-23T09:50:16;98062.16;;;29.89;35.43
10700;BME280;5401;41.986;21.452;2023-05-23T09:52:43;98067.00;;;29.81;35.25
10700;BME280;5401;41.986;21.452;2023-05-23T09:55:11;98061.25;;;29.97;35.48
10700;BME280;5401;41.986;21.452;2023-05-23T09:57:40;98061.06;;;30.02;35.41
10700;BME280;5401;41.986;21.452;2023-05-23T10:00:09;98048.25;;;30.10;34.89
10700;BME280;5401;41.986;21.452;2023-05-23T10:02:54;98050.94;;;30.42;34.57
10700;BME280;5401;41.986;21.452;2023-05-23T10:05:32;98049.88;;;30.70;34.04
10700;BME280;5401;41.986;21.452;2023-05-23T10:08:01;98042.97;;;30.88;34.52
10700;BME280;5401;41.986;21.452;2023-05-23T10:10:32;98053.28;;;31.02;33.78
10700;BME280;5401;41.986;21.452;2023-05-23T10:13:02;98031.41;;;30.97;33.88
10700;BME280;5401;41.986;21.452;2023-05-23T10:15:36;98036.97;;;30.74;33.79
10700;BME280;5401;41.986;21.452;2023-05-23T10:18:10;98043.66;;;30.85;33.23
10700;BME280;5401;41.986;21.452;2023-05-23T10:20:44;98040.75;;;30.93;33.66
10700;BME280;5401;41.986;21.452;2023-05-23T10:23:14;98033.88;;;30.87;33.12
10700;BME280;5401;41.986;21.452;2023-05-23T10:25:43;98036.19;;;30.61;33.29
10700;BME280;5401;41.986;21.452;2023-05-23T10:28:13;98026.44;;;30.40;33.31
10700;BME280;5401;41.986;21.452;2023-05-23T10:30:41;98025.59;;;30.52;33.56
10700;BME280;5401;41.986;21.452;2023-05-23T10:33:11;98003.63;;;30.43;32.83
10700;BME280;5401;41.986;21.452;2023-05-23T10:35:48;98015.72;;;30.51;32.91
10700;BME280;5401;41.986;21.452;2023-05-23T10:38:28;98016.88;;;30.38;33.13
10700;BME280;5401;41.986;21.452;2023-05-23T10:41:08;98013.16;;;30.46;33.36
10700;BME280;5401;41.986;21.452;2023-05-23T10:43:44;97987.03;;;30.43;33.36
10700;BME280;5401;41.986;21.452;2023-05-23T10:46:14;97989.69;;;30.40;33.10
10700;BME280;5401;41.986;21.452;2023-05-23T10:48:47;97990.84;;;30.51;32.93
10700;BME280;5401;41.986;21.452;2023-05-23T10:51:25;97995.28;;;30.67;32.38
10700;BME280;5401;41.986;21.452;2023-05-23T10:54:10;97998.81;;;30.91;32.76
10700;BME280;5401;41.986;21.452;2023-05-23T10:56:41;97980.63;;;30.78;32.63
10700;BME280;5401;41.986;21.452;2023-05-23T10:59:19;97999.78;;;30.83;32.39
10700;BME280;5401;41.986;21.452;2023-05-23T11:01:49;98011.09;;;31.05;32.91
10700;BME280;5401;41.986;21.452;2023-05-23T11:04:26;97983.63;;;31.12;32.54
10700;BME280;5401;41.986;21.452;2023-05-23T11:06:55;97999.75;;;31.49;32.60
10700;BME280;5401;41.986;21.452;2023-05-23T11:09:23;97995.09;;;31.68;31.98
10700;BME280;5401;41.986;21.452;2023-05-23T11:11:51;97998.53;;;31.93;31.65
10700;BME280;5401;41.986;21.452;2023-05-23T11:14:31;98009.34;;;31.98;32.05
10700;BME280;5401;41.986;21.452;2023-05-23T11:16:59;98009.00;;;31.84;31.80
10700;BME280;5401;41.986;21.452;2023-05-23T11:19:28;98004.19;;;31.69;32.19
10700;BME280;5401;41.986;21.452;2023-05-23T11:21:58;98000.28;;;31.27;32.46
10700;BME280;5401;41.986;21.452;2023-05-23T11:24:47;97995.59;;;30.89;32.10
10700;BME280;5401;41.986;21.452;2023-05-23T11:27:17;98005.91;;;30.65;32.73
10700;BME280;5401;41.986;21.452;2023-05-23T11:29:56;97997.47;;;30.61;32.82
10700;BME280;5401;41.986;21.452;2023-05-23T11:32:27;97990.75;;;30.86;32.98
10700;BME280;5401;41.986;21.452;2023-05-23T11:34:58;97971.97;;;30.91;32.51
10700;BME280;5401;41.986;21.452;2023-05-23T11:37:26;97990.78;;;31.13;33.23
10700;BME280;5401;41.986;21.452;2023-05-23T11:39:54;97985.28;;;31.28;33.03
10700;BME280;5401;41.986;21.452;2023-05-23T11:42:22;97981.84;;;31.47;32.05
10700;BME280;5401;41.986;21.452;2023-05-23T11:44:50;97990.72;;;31.67;32.69
10700;BME280;5401;41.986;21.452;2023-05-23T11:47:19;97977.75;;;31.56;32.42
10700;BME280;5401;41.986;21.452;2023-05-23T11:49:47;97977.13;;;31.47;32.41
10700;BME280;5401;41.986;21.452;2023-05-23T11:52:15;97975.41;;;31.43;32.32
10700;BME280;5401;41.986;21.452;2023-05-23T11:54:43;97971.06;;;31.42;32.95
10700;BME280;5401;41.986;21.452;2023-05-23T11:57:12;97968.13;;;31.50;32.45
10700;BME280;5401;41.986;21.452;2023-05-23T11:59:40;97977.59;;;31.49;33.01
10700;BME280;5401;41.986;21.452;2023-05-23T12:02:07;97969.19;;;31.46;32.99
10700;BME280;5401;41.986;21.452;2023-05-23T12:04:35;97974.06;;;31.37;32.81
10700;BME280;5401;41.986;21.452;2023-05-23T12:07:05;97969.81;;;31.39;33.54
10700;BME280;5401;41.986;21.452;2023-05-23T12:09:42;97965.91;;;31.56;32.99
10700;BME280;5401;41.986;21.452;2023-05-23T12:12:11;97957.31;;;31.76;32.69
10700;BME280;5401;41.986;21.452;2023-05-23T12:14:40;97960.75;;;32.00;32.81
10700;BME280;5401;41.986;21.452;2023-05-23T12:17:10;97957.47;;;32.13;32.50
10700;BME280;5401;41.986;21.452;2023-05-23T12:19:39;97959.63;;;32.20;32.32
10700;BME280;5401;41.986;21.452;2023-05-23T12:22:07;97949.56;;;32.12;32.05
10700;BME280;5401;41.986;21.452;2023-05-23T12:24:34;97947.69;;;32.16;32.35
10700;BME280;5401;41.986;21.452;2023-05-23T12:27:04;97946.06;;;31.99;32.22
10700;BME280;5401;41.986;21.452;2023-05-23T12:29:33;97955.28;;;31.88;32.26
10700;BME280;5401;41.986;21.452;2023-05-23T12:32:03;97950.16;;;31.75;32.07
10700;BME280;5401;41.986;21.452;2023-05-23T12:34:32;97957.06;;;31.65;32.60
10700;BME280;5401;41.986;21.452;2023-05-23T12:37:00;97942.81;;;31.36;32.58
10700;BME280;5401;41.986;21.452;2023-05-23T12:39:29;97955.78;;;31.21;33.04
10700;BME280;5401;41.986;21.452;2023-05-23T12:42:08;97956.72;;;30.97;32.90
10700;BME280;5401;41.986;21.452;2023-05-23T12:44:36;97954.75;;;30.71;33.20
10700;BME280;5401;41.986;21.452;2023-05-23T12:47:04;97943.06;;;30.50;33.24
10700;BME280;5401;41.986;21.452;2023-05-23T12:49:32;97931.91;;;30.23;33.84
10700;BME280;5401;41.986;21.452;2023-05-23T12:52:00;97939.88;;;30.24;33.66
10700;BME280;5401;41.986;21.452;2023-05-23T12:54:27;97941.00;;;30.12;33.85
10700;BME280;5401;41.986;21.452;2023-05-23T12:56:55;97932.50;;;29.93;33.68
10700;BME280;5401;41.986;21.452;2023-05-23T12:59:24;97938.88;;;29.82;33.94
10700;BME280;5401;41.986;21.452;2023-05-23T13:01:51;97939.31;;;29.83;34.30
10700;BME280;5401;41.986;21.452;2023-05-23T13:04:19;97941.97;;;29.80;34.21
10700;BME280;5401;41.986;21.452;2023-05-23T13:06:47;97948.53;;;29.76;34.22
10700;BME280;5401;41.986;21.452;2023-05-23T13:09:14;97953.13;;;29.72;33.82